sensor_id;sensor_type;location;lat;lon;timestamp;P1;durP1;ratioP1;P2;durP2;ratioP2
13708;SDS011;54933;51.908;7.730;2023-04-25T00:01:01;0.87;;;0.60;;
13708;SDS011;54933;51.908;7.730;2023-04-25T00:03:27;1.83;;;0.80;;
13708;SDS011;54933;51.908;7.730;2023-04-25T00:05:54;0.90;;;0.83;;
13708;SDS011;54933;51.908;7.730;2023-04-25T00:08:21;1.70;;;1.20;;
13708;SDS011;54933;51.908;7.730;2023-04-25T00:10:47;1.63;;;0.90;;
13708;SDS011;54933;51.908;7.730;2023-04-25T00:13:13;0.90;;;0.80;;
13708;SDS011;54933;51.908;7.730;2023-04-25T00:15:39;2.07;;;0.90;;
13708;SDS011;54933;51.908;7.730;2023-04-25T00:18:06;0.57;;;0.57;;
13708;SDS011;54933;51.908;7.730;2023-04-25T00:20:31;2.97;;;1.27;;
13708;SDS011;54933;51.908;7.730;2023-04-25T00:22:57;1.27;;;0.93;;
13708;SDS011;54933;51.908;7.730;2023-04-25T00:25:22;1.13;;;1.00;;
13708;SDS011;54933;51.908;7.730;2023-04-25T00:27:48;0.93;;;0.83;;
13708;SDS011;54933;51.908;7.730;2023-04-25T00:30:13;0.90;;;0.90;;
13708;SDS011;54933;51.908;7.730;2023-04-25T00:32:39;0.80;;;0.80;;
13708;SDS011;54933;51.908;7.730;2023-04-25T00:35:04;1.60;;;0.80;;
13708;SDS011;54933;51.908;7.730;2023-04-25T00:37:30;0.63;;;0.63;;
13708;SDS011;54933;51.908;7.730;2023-04-25T00:39:57;1.40;;;0.90;;
13708;SDS011;54933;51.908;7.730;2023-04-25T00:42:23;1.00;;;0.80;;
13708;SDS011;54933;51.908;7.730;2023-04-25T00:44:49;1.97;;;0.80;;
13708;SDS011;54933;51.908;7.730;2023-04-25T00:47:15;1.77;;;0.80;;
13708;SDS011;54933;51.908;7.730;2023-04-25T00:49:41;1.00;;;0.80;;
13708;SDS011;54933;51.908;7.730;2023-04-25T00:52:06;1.53;;;1.43;;
13708;SDS011;54933;51.908;7.730;2023-04-25T00:54:31;0.90;;;0.90;;
13708;SDS011;54933;51.908;7.730;2023-04-25T00:56:57;1.37;;;0.70;;
13708;SDS011;54933;51.908;7.730;2023-04-25T00:59:22;1.17;;;1.07;;
13708;SDS011;54933;51.908;7.730;2023-04-25T01:01:48;1.30;;;0.80;;
13708;SDS011;54933;51.908;7.730;2023-04-25T01:04:13;0.77;;;0.77;;
13708;SDS011;54933;51.908;7.730;2023-04-25T01:06:38;1.03;;;0.90;;
13708;SDS011;54933;51.908;7.730;2023-04-25T01:09:05;0.97;;;0.70;;
13708;SDS011;54933;51.908;7.730;2023-04-25T01:11:30;0.50;;;0.47;;
13708;SDS011;54933;51.908;7.730;2023-04-25T01:13:56;2.03;;;0.80;;
13708;SDS011;54933;51.908;7.730;2023-04-25T01:16:21;0.73;;;0.57;;
13708;SDS011;54933;51.908;7.730;2023-04-25T01:18:48;0.60;;;0.60;;
13708;SDS011;54933;51.908;7.730;2023-04-25T01:21:15;1.00;;;0.80;;
13708;SDS011;54933;51.908;7.730;2023-04-25T01:23:41;0.70;;;0.70;;
13708;SDS011;54933;51.908;7.730;2023-04-25T01:26:08;1.47;;;0.90;;
13708;SDS011;54933;51.908;7.730;2023-04-25T01:28:35;1.13;;;1.00;;
13708;SDS011;54933;51.908;7.730;2023-04-25T01:31:01;0.60;;;0.60;;
13708;SDS011;54933;51.908;7.730;2023-04-25T01:33:27;0.60;;;0.60;;
13708;SDS011;54933;51.908;7.730;2023-04-25T01:35:52;1.17;;;0.77;;
13708;SDS011;54933;51.908;7.730;2023-04-25T01:38:17;0.70;;;0.70;;
13708;SDS011;54933;51.908;7.730;2023-04-25T01:40:43;0.80;;;0.80;;
13708;SDS011;54933;51.908;7.730;2023-04-25T01:43:10;1.00;;;0.90;;
13708;SDS011;54933;51.908;7.730;2023-04-25T01:45:37;1.13;;;0.70;;
13708;SDS011;54933;51.908;7.730;2023-04-25T01:48:06;1.00;;;0.90;;
13708;SDS011;54933;51.908;7.730;2023-04-25T01:50:32;1.30;;;0.67;;
13708;SDS011;54933;51.908;7.730;2023-04-25T01:52:57;1.53;;;1.00;;
13708;SDS011;54933;51.908;7.730;2023-04-25T01:55:23;1.23;;;0.70;;
13708;SDS011;54933;51.908;7.730;2023-04-25T01:57:48;1.13;;;0.80;;
13708;SDS011;54933;51.908;7.730;2023-04-25T02:00:13;1.00;;;1.00;;
13708;SDS011;54933;51.908;7.730;2023-04-25T02:02:39;0.77;;;0.77;;
13708;SDS011;54933;51.908;7.730;2023-04-25T02:05:04;0.70;;;0.70;;
13708;SDS011;54933;51.908;7.730;2023-04-25T02:07:30;1.83;;;0.60;;
13708;SDS011;54933;51.908;7.730;2023-04-25T02:09:56;1.20;;;0.70;;
13708;SDS011;54933;51.908;7.730;2023-04-25T02:12:21;0.67;;;0.67;;
13708;SDS011;54933;51.908;7.730;2023-04-25T02:14:47;0.97;;;0.70;;
13708;SDS011;54933;51.908;7.730;2023-04-25T02:17:12;0.40;;;0.40;;
13708;SDS011;54933;51.908;7.730;2023-04-25T02:19:38;1.53;;;0.90;;
13708;SDS011;54933;51.908;7.730;2023-04-25T02:22:03;0.60;;;0.60;;
13708;SDS011;54933;51.908;7.730;2023-04-25T02:24:29;0.60;;;0.60;;
13708;SDS011;54933;51.908;7.730;2023-04-25T02:26:54;0.70;;;0.70;;
13708;SDS011;54933;51.908;7.730;2023-04-25T02:29:21;0.70;;;0.53;;
13708;SDS011;54933;51.908;7.730;2023-04-25T02:31:46;0.63;;;0.63;;
13708;SDS011;54933;51.908;7.730;2023-04-25T02:34:11;0.50;;;0.50;;
13708;SDS011;54933;51.908;7.730;2023-04-25T02:36:36;0.70;;;0.70;;
13708;SDS011;54933;51.908;7.730;2023-04-25T02:39:02;0.60;;;0.60;;
13708;SDS011;54933;51.908;7.730;2023-04-25T02:41:28;0.87;;;0.87;;
13708;SDS011;54933;51.908;7.730;2023-04-25T02:43:53;0.40;;;0.40;;
13708;SDS011;54933;51.908;7.730;2023-04-25T02:46:19;0.60;;;0.60;;
13708;SDS011;54933;51.908;7.730;2023-04-25T02:48:45;1.43;;;0.77;;
13708;SDS011;54933;51.908;7.730;2023-04-25T02:51:10;1.40;;;0.80;;
13708;SDS011;54933;51.908;7.730;2023-04-25T02:53:36;0.50;;;0.50;;
13708;SDS011;54933;51.908;7.730;2023-04-25T02:56:01;0.47;;;0.47;;
13708;SDS011;54933;51.908;7.730;2023-04-25T02:58:26;0.60;;;0.60;;
13708;SDS011;54933;51.908;7.730;2023-04-25T03:00:52;1.93;;;0.70;;
13708;SDS011;54933;51.908;7.730;2023-04-25T03:03:17;0.70;;;0.70;;
13708;SDS011;54933;51.908;7.730;2023-04-25T03:05:43;0.97;;;0.80;;
13708;SDS011;54933;51.908;7.730;2023-04-25T03:08:09;1.37;;;0.70;;
13708;SDS011;54933;51.908;7.730;2023-04-25T03:10:34;0.87;;;0.87;;
13708;SDS011;54933;51.908;7.730;2023-04-25T03:13:00;0.97;;;0.70;;
13708;SDS011;54933;51.908;7.730;2023-04-25T03:15:25;1.03;;;0.80;;
13708;SDS011;54933;51.908;7.730;2023-04-25T03:17:50;0.87;;;0.63;;
13708;SDS011;54933;51.908;7.730;2023-04-25T03:20:15;0.67;;;0.50;;
13708;SDS011;54933;51.908;7.730;2023-04-25T03:22:41;0.73;;;0.70;;
13708;SDS011;54933;51.908;7.730;2023-04-25T03:25:06;0.80;;;0.80;;
13708;SDS011;54933;51.908;7.730;2023-04-25T03:27:32;1.33;;;0.60;;
13708;SDS011;54933;51.908;7.730;2023-04-25T03:29:58;0.50;;;0.50;;
13708;SDS011;54933;51.908;7.730;2023-04-25T03:32:23;0.87;;;0.53;;
13708;SDS011;54933;51.908;7.730;2023-04-25T03:34:48;1.00;;;0.63;;
13708;SDS011;54933;51.908;7.730;2023-04-25T03:37:13;0.43;;;0.43;;
13708;SDS011;54933;51.908;7.730;2023-04-25T03:39:39;0.60;;;0.50;;
13708;SDS011;54933;51.908;7.730;2023-04-25T03:42:04;0.63;;;0.40;;
13708;SDS011;54933;51.908;7.730;2023-04-25T03:44:29;0.50;;;0.50;;
13708;SDS011;54933;51.908;7.730;2023-04-25T03:46:54;1.03;;;0.70;;
13708;SDS011;54933;51.908;7.730;2023-04-25T03:49:20;0.80;;;0.60;;
13708;SDS011;54933;51.908;7.730;2023-04-25T03:51:45;0.50;;;0.50;;
13708;SDS011;54933;51.908;7.730;2023-04-25T03:54:10;1.50;;;0.50;;
13708;SDS011;54933;51.908;7.730;2023-04-25T03:56:36;0.60;;;0.60;;
13708;SDS011;54933;51.908;7.730;2023-04-25T03:59:01;0.60;;;0.60;;
13708;SDS011;54933;51.908;7.730;2023-04-25T04:01:26;0.60;;;0.60;;
13708;SDS011;54933;51.908;7.730;2023-04-25T04:03:51;1.07;;;0.60;;
13708;SDS011;54933;51.908;7.730;2023-04-25T04:06:17;1.20;;;0.90;;
13708;SDS011;54933;51.908;7.730;2023-04-25T04:08:42;0.60;;;0.60;;
13708;SDS011;54933;51.908;7.730;2023-04-25T04:11:07;1.63;;;0.60;;
13708;SDS011;54933;51.908;7.730;2023-04-25T04:13:32;0.87;;;0.60;;
13708;SDS011;54933;51.908;7.730;2023-04-25T04:15:58;0.60;;;0.60;;
13708;SDS011;54933;51.908;7.730;2023-04-25T04:18:23;1.87;;;0.70;;
13708;SDS011;54933;51.908;7.730;2023-04-25T04:20:49;0.63;;;0.63;;
13708;SDS011;54933;51.908;7.730;2023-04-25T04:23:14;1.37;;;0.80;;
13708;SDS011;54933;51.908;7.730;2023-04-25T04:25:40;0.63;;;0.57;;
13708;SDS011;54933;51.908;7.730;2023-04-25T04:28:05;0.87;;;0.83;;
13708;SDS011;54933;51.908;7.730;2023-04-25T04:30:32;0.60;;;0.60;;
13708;SDS011;54933;51.908;7.730;2023-04-25T04:32:58;0.60;;;0.47;;
13708;SDS011;54933;51.908;7.730;2023-04-25T04:35:25;1.07;;;1.03;;
13708;SDS011;54933;51.908;7.730;2023-04-25T04:37:51;1.20;;;0.60;;
13708;SDS011;54933;51.908;7.730;2023-04-25T04:40:17;0.80;;;0.80;;
13708;SDS011;54933;51.908;7.730;2023-04-25T04:42:43;1.53;;;0.73;;
13708;SDS011;54933;51.908;7.730;2023-04-25T04:45:10;0.83;;;0.80;;
13708;SDS011;54933;51.908;7.730;2023-04-25T04:47:35;1.20;;;0.80;;
13708;SDS011;54933;51.908;7.730;2023-04-25T04:50:01;0.73;;;0.70;;
13708;SDS011;54933;51.908;7.730;2023-04-25T04:52:33;0.63;;;0.63;;
13708;SDS011;54933;51.908;7.730;2023-04-25T04:54:59;0.60;;;0.50;;
13708;SDS011;54933;51.908;7.730;2023-04-25T04:57:24;0.83;;;0.50;;
13708;SDS011;54933;51.908;7.730;2023-04-25T04:59:50;0.50;;;0.50;;
13708;SDS011;54933;51.908;7.730;2023-04-25T05:02:16;1.33;;;0.70;;
13708;SDS011;54933;51.908;7.730;2023-04-25T05:04:41;2.00;;;0.77;;
13708;SDS011;54933;51.908;7.730;2023-04-25T05:07:06;0.73;;;0.50;;
13708;SDS011;54933;51.908;7.730;2023-04-25T05:09:32;0.90;;;0.67;;
13708;SDS011;54933;51.908;7.730;2023-04-25T05:11:57;1.43;;;0.70;;
13708;SDS011;54933;51.908;7.730;2023-04-25T05:14:22;2.93;;;0.90;;
13708;SDS011;54933;51.908;7.730;2023-04-25T05:16:48;34.53;;;3.53;;
13708;SDS011;54933;51.908;7.730;2023-04-25T05:19:13;18.37;;;2.10;;
13708;SDS011;54933;51.908;7.730;2023-04-25T05:21:38;13.73;;;2.30;;
13708;SDS011;54933;51.908;7.730;2023-04-25T05:24:04;17.20;;;2.13;;
13708;SDS011;54933;51.908;7.730;2023-04-25T05:26:29;12.27;;;1.93;;
13708;SDS011;54933;51.908;7.730;2023-04-25T05:28:56;12.23;;;1.93;;
13708;SDS011;54933;51.908;7.730;2023-04-25T05:31:22;15.43;;;2.23;;
13708;SDS011;54933;51.908;7.730;2023-04-25T05:33:47;24.47;;;2.13;;
13708;SDS011;54933;51.908;7.730;2023-04-25T05:36:12;12.87;;;1.93;;
13708;SDS011;54933;51.908;7.730;2023-04-25T05:38:37;11.30;;;1.80;;
13708;SDS011;54933;51.908;7.730;2023-04-25T05:41:03;20.10;;;1.97;;
13708;SDS011;54933;51.908;7.730;2023-04-25T05:43:28;9.73;;;1.77;;
13708;SDS011;54933;51.908;7.730;2023-04-25T05:45:53;10.80;;;1.90;;
13708;SDS011;54933;51.908;7.730;2023-04-25T05:48:19;9.13;;;2.03;;
13708;SDS011;54933;51.908;7.730;2023-04-25T05:50:44;9.10;;;2.03;;
13708;SDS011;54933;51.908;7.730;2023-04-25T05:53:09;11.93;;;1.57;;
13708;SDS011;54933;51.908;7.730;2023-04-25T05:55:35;9.30;;;1.70;;
13708;SDS011;54933;51.908;7.730;2023-04-25T05:58:00;5.17;;;1.90;;
13708;SDS011;54933;51.908;7.730;2023-04-25T06:00:25;9.17;;;1.27;;
13708;SDS011;54933;51.908;7.730;2023-04-25T06:02:51;36.83;;;4.50;;
13708;SDS011;54933;51.908;7.730;2023-04-25T06:05:16;11.77;;;1.80;;
13708;SDS011;54933;51.908;7.730;2023-04-25T06:07:41;5.37;;;1.80;;
13708;SDS011;54933;51.908;7.730;2023-04-25T06:10:07;13.47;;;1.97;;
13708;SDS011;54933;51.908;7.730;2023-04-25T06:12:33;7.40;;;1.70;;
13708;SDS011;54933;51.908;7.730;2023-04-25T06:14:58;9.90;;;1.53;;
13708;SDS011;54933;51.908;7.730;2023-04-25T06:17:24;7.97;;;1.30;;
13708;SDS011;54933;51.908;7.730;2023-04-25T06:19:49;5.30;;;1.27;;
13708;SDS011;54933;51.908;7.730;2023-04-25T06:22:14;11.57;;;1.47;;
13708;SDS011;54933;51.908;7.730;2023-04-25T06:24:40;4.50;;;0.90;;
13708;SDS011;54933;51.908;7.730;2023-04-25T06:27:05;5.60;;;1.67;;
13708;SDS011;54933;51.908;7.730;2023-04-25T06:29:30;9.30;;;1.13;;
13708;SDS011;54933;51.908;7.730;2023-04-25T06:31:56;7.33;;;1.77;;
13708;SDS011;54933;51.908;7.730;2023-04-25T06:34:22;9.63;;;1.30;;
13708;SDS011;54933;51.908;7.730;2023-04-25T06:36:47;6.87;;;1.30;;
13708;SDS011;54933;51.908;7.730;2023-04-25T06:39:12;3.03;;;1.30;;
13708;SDS011;54933;51.908;7.730;2023-04-25T06:41:37;9.00;;;1.80;;
13708;SDS011;54933;51.908;7.730;2023-04-25T06:44:03;4.77;;;1.47;;
13708;SDS011;54933;51.908;7.730;2023-04-25T06:46:28;5.47;;;1.20;;
13708;SDS011;54933;51.908;7.730;2023-04-25T06:48:53;3.23;;;1.00;;
13708;SDS011;54933;51.908;7.730;2023-04-25T06:51:18;5.77;;;1.17;;
13708;SDS011;54933;51.908;7.730;2023-04-25T06:53:44;6.57;;;1.03;;
13708;SDS011;54933;51.908;7.730;2023-04-25T06:56:09;2.50;;;0.87;;
13708;SDS011;54933;51.908;7.730;2023-04-25T06:58:35;3.93;;;1.13;;
13708;SDS011;54933;51.908;7.730;2023-04-25T07:01:00;3.40;;;1.57;;
13708;SDS011;54933;51.908;7.730;2023-04-25T07:03:25;1.20;;;0.90;;
13708;SDS011;54933;51.908;7.730;2023-04-25T07:05:50;1.80;;;1.10;;
13708;SDS011;54933;51.908;7.730;2023-04-25T07:08:16;1.47;;;1.00;;
13708;SDS011;54933;51.908;7.730;2023-04-25T07:10:42;9.47;;;1.00;;
13708;SDS011;54933;51.908;7.730;2023-04-25T07:13:07;2.40;;;1.00;;
13708;SDS011;54933;51.908;7.730;2023-04-25T07:15:32;2.60;;;0.83;;
13708;SDS011;54933;51.908;7.730;2023-04-25T07:17:58;3.40;;;1.00;;
13708;SDS011;54933;51.908;7.730;2023-04-25T07:20:24;4.40;;;1.30;;
13708;SDS011;54933;51.908;7.730;2023-04-25T07:22:49;2.17;;;1.10;;
13708;SDS011;54933;51.908;7.730;2023-04-25T07:25:15;3.17;;;1.27;;
13708;SDS011;54933;51.908;7.730;2023-04-25T07:27:41;3.93;;;1.40;;
13708;SDS011;54933;51.908;7.730;2023-04-25T07:30:06;1.60;;;1.00;;
13708;SDS011;54933;51.908;7.730;2023-04-25T07:32:32;2.83;;;0.90;;
13708;SDS011;54933;51.908;7.730;2023-04-25T07:34:57;2.03;;;1.00;;
13708;SDS011;54933;51.908;7.730;2023-04-25T07:37:23;2.83;;;0.90;;
13708;SDS011;54933;51.908;7.730;2023-04-25T07:39:48;2.13;;;0.80;;
13708;SDS011;54933;51.908;7.730;2023-04-25T07:42:13;1.50;;;0.70;;
13708;SDS011;54933;51.908;7.730;2023-04-25T07:44:38;0.83;;;0.73;;
13708;SDS011;54933;51.908;7.730;2023-04-25T07:47:05;2.37;;;1.20;;
13708;SDS011;54933;51.908;7.730;2023-04-25T07:49:34;2.83;;;1.03;;
13708;SDS011;54933;51.908;7.730;2023-04-25T07:52:01;1.50;;;1.00;;
13708;SDS011;54933;51.908;7.730;2023-04-25T07:54:27;2.73;;;0.80;;
13708;SDS011;54933;51.908;7.730;2023-04-25T07:56:52;2.27;;;1.20;;
13708;SDS011;54933;51.908;7.730;2023-04-25T07:59:17;2.20;;;0.90;;
13708;SDS011;54933;51.908;7.730;2023-04-25T08:01:43;3.80;;;1.07;;
13708;SDS011;54933;51.908;7.730;2023-04-25T08:04:08;1.03;;;0.80;;
13708;SDS011;54933;51.908;7.730;2023-04-25T08:06:33;0.90;;;0.70;;
13708;SDS011;54933;51.908;7.730;2023-04-25T08:08:59;1.67;;;1.03;;
13708;SDS011;54933;51.908;7.730;2023-04-25T08:11:24;1.03;;;0.90;;
13708;SDS011;54933;51.908;7.730;2023-04-25T08:13:50;2.67;;;0.77;;
13708;SDS011;54933;51.908;7.730;2023-04-25T08:16:15;3.17;;;0.60;;
13708;SDS011;54933;51.908;7.730;2023-04-25T08:18:40;1.70;;;0.70;;
13708;SDS011;54933;51.908;7.730;2023-04-25T08:21:06;1.53;;;1.07;;
13708;SDS011;54933;51.908;7.730;2023-04-25T08:23:33;1.40;;;0.70;;
13708;SDS011;54933;51.908;7.730;2023-04-25T08:25:58;0.93;;;0.73;;
13708;SDS011;54933;51.908;7.730;2023-04-25T08:28:24;1.20;;;0.70;;
13708;SDS011;54933;51.908;7.730;2023-04-25T08:30:49;1.20;;;0.70;;
13708;SDS011;54933;51.908;7.730;2023-04-25T08:33:14;3.17;;;1.00;;
13708;SDS011;54933;51.908;7.730;2023-04-25T08:35:40;0.97;;;0.90;;
13708;SDS011;54933;51.908;7.730;2023-04-25T08:38:05;2.50;;;0.70;;
13708;SDS011;54933;51.908;7.730;2023-04-25T08:40:30;0.70;;;0.70;;
13708;SDS011;54933;51.908;7.730;2023-04-25T08:43:02;2.67;;;0.90;;
13708;SDS011;54933;51.908;7.730;2023-04-25T08:45:28;1.87;;;0.90;;
13708;SDS011;54933;51.908;7.730;2023-04-25T08:47:57;1.00;;;0.77;;
13708;SDS011;54933;51.908;7.730;2023-04-25T08:50:23;1.20;;;0.87;;
13708;SDS011;54933;51.908;7.730;2023-04-25T08:52:51;1.93;;;0.70;;
13708;SDS011;54933;51.908;7.730;2023-04-25T08:55:18;1.70;;;0.90;;
13708;SDS011;54933;51.908;7.730;2023-04-25T08:57:46;1.03;;;0.70;;
13708;SDS011;54933;51.908;7.730;2023-04-25T09:00:12;0.60;;;0.60;;
13708;SDS011;54933;51.908;7.730;2023-04-25T09:02:38;1.87;;;0.70;;
13708;SDS011;54933;51.908;7.730;2023-04-25T09:05:04;1.03;;;0.70;;
13708;SDS011;54933;51.908;7.730;2023-04-25T09:07:31;0.90;;;0.50;;
13708;SDS011;54933;51.908;7.730;2023-04-25T09:09:57;1.10;;;0.57;;
13708;SDS011;54933;51.908;7.730;2023-04-25T09:12:24;0.67;;;0.63;;
13708;SDS011;54933;51.908;7.730;2023-04-25T09:15:05;2.03;;;0.80;;
13708;SDS011;54933;51.908;7.730;2023-04-25T09:17:34;0.70;;;0.60;;
13708;SDS011;54933;51.908;7.730;2023-04-25T09:20:08;1.63;;;0.90;;
13708;SDS011;54933;51.908;7.730;2023-04-25T09:22:35;0.60;;;0.60;;
13708;SDS011;54933;51.908;7.730;2023-04-25T09:25:02;1.50;;;0.60;;
13708;SDS011;54933;51.908;7.730;2023-04-25T09:27:34;1.00;;;0.70;;
13708;SDS011;54933;51.908;7.730;2023-04-25T09:29:59;0.60;;;0.60;;
13708;SDS011;54933;51.908;7.730;2023-04-25T09:32:25;1.43;;;0.87;;
13708;SDS011;54933;51.908;7.730;2023-04-25T09:34:54;0.93;;;0.50;;
13708;SDS011;54933;51.908;7.730;2023-04-25T09:37:21;0.87;;;0.60;;
13708;SDS011;54933;51.908;7.730;2023-04-25T09:39:52;0.90;;;0.50;;
13708;SDS011;54933;51.908;7.730;2023-04-25T09:42:21;0.50;;;0.50;;
13708;SDS011;54933;51.908;7.730;2023-04-25T09:44:48;0.60;;;0.60;;
13708;SDS011;54933;51.908;7.730;2023-04-25T09:47:16;1.33;;;0.80;;
13708;SDS011;54933;51.908;7.730;2023-04-25T09:49:42;2.93;;;1.00;;
13708;SDS011;54933;51.908;7.730;2023-04-25T09:52:09;1.47;;;0.50;;
13708;SDS011;54933;51.908;7.730;2023-04-25T09:54:38;2.17;;;1.17;;
13708;SDS011;54933;51.908;7.730;2023-04-25T09:57:24;3.17;;;1.00;;
13708;SDS011;54933;51.908;7.730;2023-04-25T09:59:50;0.53;;;0.53;;
13708;SDS011;54933;51.908;7.730;2023-04-25T10:02:17;1.73;;;0.77;;
13708;SDS011;54933;51.908;7.730;2023-04-25T10:04:46;2.13;;;0.80;;
13708;SDS011;54933;51.908;7.730;2023-04-25T10:07:13;0.97;;;0.80;;
13708;SDS011;54933;51.908;7.730;2023-04-25T10:09:39;1.80;;;1.10;;
13708;SDS011;54933;51.908;7.730;2023-04-25T10:12:06;0.87;;;0.77;;
13708;SDS011;54933;51.908;7.730;2023-04-25T10:14:32;0.60;;;0.60;;
13708;SDS011;54933;51.908;7.730;2023-04-25T10:16:58;0.60;;;0.60;;
13708;SDS011;54933;51.908;7.730;2023-04-25T10:19:24;0.70;;;0.60;;
13708;SDS011;54933;51.908;7.730;2023-04-25T10:21:52;0.83;;;0.60;;
13708;SDS011;54933;51.908;7.730;2023-04-25T10:24:23;0.40;;;0.40;;
13708;SDS011;54933;51.908;7.730;2023-04-25T10:26:50;0.97;;;0.57;;
13708;SDS011;54933;51.908;7.730;2023-04-25T10:29:21;1.00;;;0.53;;
13708;SDS011;54933;51.908;7.730;2023-04-25T10:31:48;0.70;;;0.67;;
13708;SDS011;54933;51.908;7.730;2023-04-25T10:34:14;0.60;;;0.60;;
13708;SDS011;54933;51.908;7.730;2023-04-25T10:36:40;0.70;;;0.70;;
13708;SDS011;54933;51.908;7.730;2023-04-25T10:39:06;0.37;;;0.37;;
13708;SDS011;54933;51.908;7.730;2023-04-25T10:41:45;1.47;;;0.70;;
13708;SDS011;54933;51.908;7.730;2023-04-25T10:44:12;0.60;;;0.60;;
13708;SDS011;54933;51.908;7.730;2023-04-25T10:46:38;2.97;;;0.73;;
13708;SDS011;54933;51.908;7.730;2023-04-25T10:49:04;2.90;;;0.70;;
13708;SDS011;54933;51.908;7.730;2023-04-25T10:51:32;3.87;;;0.70;;
13708;SDS011;54933;51.908;7.730;2023-04-25T10:54:03;3.17;;;1.00;;
13708;SDS011;54933;51.908;7.730;2023-04-25T10:56:33;14.37;;;1.10;;
13708;SDS011;54933;51.908;7.730;2023-04-25T10:59:12;5.63;;;0.80;;
13708;SDS011;54933;51.908;7.730;2023-04-25T11:01:42;2.67;;;0.80;;
13708;SDS011;54933;51.908;7.730;2023-04-25T11:04:30;6.53;;;2.13;;
13708;SDS011;54933;51.908;7.730;2023-04-25T11:09:30;3.40;;;0.90;;
13708;SDS011;54933;51.908;7.730;2023-04-25T11:11:57;3.60;;;0.97;;
13708;SDS011;54933;51.908;7.730;2023-04-25T11:14:24;2.93;;;0.83;;
13708;SDS011;54933;51.908;7.730;2023-04-25T11:16:53;2.77;;;0.67;;
13708;SDS011;54933;51.908;7.730;2023-04-25T11:19:22;0.80;;;0.53;;
13708;SDS011;54933;51.908;7.730;2023-04-25T11:21:48;4.03;;;0.97;;
13708;SDS011;54933;51.908;7.730;2023-04-25T11:24:14;1.40;;;0.60;;
13708;SDS011;54933;51.908;7.730;2023-04-25T11:26:43;2.43;;;1.20;;
13708;SDS011;54933;51.908;7.730;2023-04-25T11:29:12;3.47;;;0.90;;
13708;SDS011;54933;51.908;7.730;2023-04-25T11:31:37;1.77;;;0.70;;
13708;SDS011;54933;51.908;7.730;2023-04-25T11:34:03;0.73;;;0.70;;
13708;SDS011;54933;51.908;7.730;2023-04-25T11:36:28;2.07;;;0.60;;
13708;SDS011;54933;51.908;7.730;2023-04-25T11:38:53;1.63;;;0.80;;
13708;SDS011;54933;51.908;7.730;2023-04-25T11:41:19;1.03;;;0.70;;
13708;SDS011;54933;51.908;7.730;2023-04-25T11:43:45;3.47;;;0.83;;
13708;SDS011;54933;51.908;7.730;2023-04-25T11:46:10;2.03;;;0.80;;
13708;SDS011;54933;51.908;7.730;2023-04-25T11:48:38;0.83;;;0.60;;
13708;SDS011;54933;51.908;7.730;2023-04-25T11:51:04;1.47;;;0.63;;
13708;SDS011;54933;51.908;7.730;2023-04-25T11:53:30;2.73;;;0.90;;
13708;SDS011;54933;51.908;7.730;2023-04-25T11:55:55;3.37;;;1.00;;
13708;SDS011;54933;51.908;7.730;2023-04-25T11:58:21;1.23;;;0.60;;
13708;SDS011;54933;51.908;7.730;2023-04-25T12:00:46;3.80;;;0.90;;
13708;SDS011;54933;51.908;7.730;2023-04-25T12:03:11;2.20;;;0.70;;
13708;SDS011;54933;51.908;7.730;2023-04-25T12:05:37;5.10;;;0.67;;
13708;SDS011;54933;51.908;7.730;2023-04-25T12:08:12;2.73;;;0.70;;
13708;SDS011;54933;51.908;7.730;2023-04-25T12:10:39;1.30;;;0.50;;
13708;SDS011;54933;51.908;7.730;2023-04-25T12:15:47;2.20;;;0.70;;
13708;SDS011;54933;51.908;7.730;2023-04-25T12:18:12;1.07;;;0.80;;
13708;SDS011;54933;51.908;7.730;2023-04-25T12:20:38;1.40;;;0.63;;
13708;SDS011;54933;51.908;7.730;2023-04-25T12:23:05;1.13;;;0.60;;
13708;SDS011;54933;51.908;7.730;2023-04-25T12:25:35;1.40;;;0.70;;
13708;SDS011;54933;51.908;7.730;2023-04-25T12:33:36;2.20;;;0.57;;
13708;SDS011;54933;51.908;7.730;2023-04-25T12:36:03;1.33;;;0.73;;
13708;SDS011;54933;51.908;7.730;2023-04-25T12:38:36;0.60;;;0.40;;
13708;SDS011;54933;51.908;7.730;2023-04-25T12:41:02;1.60;;;0.53;;
13708;SDS011;54933;51.908;7.730;2023-04-25T12:43:27;0.50;;;0.50;;
13708;SDS011;54933;51.908;7.730;2023-04-25T12:45:53;1.13;;;0.50;;
13708;SDS011;54933;51.908;7.730;2023-04-25T12:48:19;1.07;;;0.70;;
13708;SDS011;54933;51.908;7.730;2023-04-25T12:50:45;1.43;;;0.60;;
13708;SDS011;54933;51.908;7.730;2023-04-25T12:53:13;0.40;;;0.40;;
13708;SDS011;54933;51.908;7.730;2023-04-25T12:55:39;2.33;;;0.50;;
13708;SDS011;54933;51.908;7.730;2023-04-25T12:58:05;0.30;;;0.30;;
13708;SDS011;54933;51.908;7.730;2023-04-25T13:00:30;1.90;;;0.53;;
13708;SDS011;54933;51.908;7.730;2023-04-25T13:02:56;1.60;;;0.57;;
13708;SDS011;54933;51.908;7.730;2023-04-25T13:05:21;1.73;;;0.60;;
13708;SDS011;54933;51.908;7.730;2023-04-25T13:07:47;1.07;;;0.40;;
13708;SDS011;54933;51.908;7.730;2023-04-25T13:10:12;0.40;;;0.40;;
13708;SDS011;54933;51.908;7.730;2023-04-25T13:12:37;1.73;;;0.67;;
13708;SDS011;54933;51.908;7.730;2023-04-25T13:15:03;0.67;;;0.60;;
13708;SDS011;54933;51.908;7.730;2023-04-25T13:17:28;0.40;;;0.37;;
13708;SDS011;54933;51.908;7.730;2023-04-25T13:19:54;0.90;;;0.60;;
13708;SDS011;54933;51.908;7.730;2023-04-25T13:22:19;2.70;;;0.70;;
13708;SDS011;54933;51.908;7.730;2023-04-25T13:24:45;0.53;;;0.50;;
13708;SDS011;54933;51.908;7.730;2023-04-25T13:27:10;0.40;;;0.40;;
13708;SDS011;54933;51.908;7.730;2023-04-25T13:29:36;44.43;;;4.07;;
13708;SDS011;54933;51.908;7.730;2023-04-25T13:32:03;32.03;;;3.43;;
13708;SDS011;54933;51.908;7.730;2023-04-25T13:34:28;22.20;;;2.23;;
13708;SDS011;54933;51.908;7.730;2023-04-25T13:36:54;17.33;;;1.60;;
13708;SDS011;54933;51.908;7.730;2023-04-25T13:39:19;27.30;;;2.23;;
13708;SDS011;54933;51.908;7.730;2023-04-25T13:41:45;16.13;;;1.90;;
13708;SDS011;54933;51.908;7.730;2023-04-25T13:44:10;25.70;;;2.20;;
13708;SDS011;54933;51.908;7.730;2023-04-25T13:46:35;14.83;;;1.50;;
13708;SDS011;54933;51.908;7.730;2023-04-25T13:49:02;9.03;;;1.60;;
13708;SDS011;54933;51.908;7.730;2023-04-25T13:51:27;11.47;;;1.37;;
13708;SDS011;54933;51.908;7.730;2023-04-25T13:53:53;12.93;;;1.50;;
13708;SDS011;54933;51.908;7.730;2023-04-25T13:56:18;11.77;;;1.37;;
13708;SDS011;54933;51.908;7.730;2023-04-25T13:58:44;8.17;;;1.20;;
13708;SDS011;54933;51.908;7.730;2023-04-25T14:01:10;10.33;;;1.80;;
13708;SDS011;54933;51.908;7.730;2023-04-25T14:03:35;33.20;;;2.93;;
13708;SDS011;54933;51.908;7.730;2023-04-25T14:06:00;6.27;;;1.20;;
13708;SDS011;54933;51.908;7.730;2023-04-25T14:08:26;12.93;;;1.90;;
13708;SDS011;54933;51.908;7.730;2023-04-25T14:10:51;22.63;;;1.90;;
13708;SDS011;54933;51.908;7.730;2023-04-25T14:13:16;19.63;;;1.80;;
13708;SDS011;54933;51.908;7.730;2023-04-25T14:15:42;11.20;;;1.80;;
13708;SDS011;54933;51.908;7.730;2023-04-25T14:18:07;20.80;;;1.63;;
13708;SDS011;54933;51.908;7.730;2023-04-25T14:20:32;11.90;;;1.80;;
13708;SDS011;54933;51.908;7.730;2023-04-25T14:22:58;13.07;;;1.50;;
13708;SDS011;54933;51.908;7.730;2023-04-25T14:25:24;8.67;;;1.40;;
13708;SDS011;54933;51.908;7.730;2023-04-25T14:27:49;8.13;;;1.40;;
13708;SDS011;54933;51.908;7.730;2023-04-25T14:30:18;7.57;;;1.30;;
13708;SDS011;54933;51.908;7.730;2023-04-25T14:32:44;10.47;;;1.20;;
13708;SDS011;54933;51.908;7.730;2023-04-25T14:35:10;9.93;;;1.67;;
13708;SDS011;54933;51.908;7.730;2023-04-25T14:37:36;2.43;;;0.70;;
13708;SDS011;54933;51.908;7.730;2023-04-25T14:40:01;3.83;;;1.13;;
13708;SDS011;54933;51.908;7.730;2023-04-25T14:42:26;13.77;;;1.67;;
13708;SDS011;54933;51.908;7.730;2023-04-25T14:44:52;4.63;;;1.00;;
13708;SDS011;54933;51.908;7.730;2023-04-25T14:47:17;5.63;;;1.10;;
13708;SDS011;54933;51.908;7.730;2023-04-25T14:49:42;50.33;;;3.63;;